Time;durP1;ratioP1;P1;durP2;ratioP2;P2;SDS_P1;SDS_P2;PMS_P1;PMS_P2;Temp;Humidity;BMP_temperature;BMP_pressure;BME280_temperature;BME280_humidity;BME280_pressure;Samples;Min_cycle;Max_cycle;Signal;HPM_P1;HPM_P2
2021/04/18 00:00:11;;;;;;;1.35;1.17;;;;;;;3.81;100.00;97261.06;5034140;28;20052;-84
2021/04/18 00:02:37;;;;;;;1.90;1.65;;;;;;;3.74;100.00;97257.81;5050179;28;20130;-85
2021/04/18 00:05:06;;;;;;;3.85;1.80;;;;;;;3.78;100.00;97243.50;5033874;28;20029;-84
2021/04/18 00:07:32;;;;;;;1.85;1.75;;;;;;;3.86;100.00;97250.28;5050439;28;20028;-83
2021/04/18 00:09:59;;;;;;;1.52;1.33;;;;;;;3.76;100.00;97240.06;5033758;28;20489;-84
2021/04/18 00:12:24;;;;;;;0.80;0.80;;;;;;;3.78;100.00;97240.88;5034202;28;20115;-85
2021/04/18 00:14:50;;;;;;;1.17;1.05;;;;;;;3.76;100.00;97234.78;5034081;28;20522;-85
2021/04/18 00:17:16;;;;;;;3.72;2.47;;;;;;;3.86;100.00;97237.94;5033975;28;20446;-85
2021/04/18 00:19:41;;;;;;;1.45;1.02;;;;;;;3.89;100.00;97234.28;5033844;28;20120;-85
2021/04/18 00:22:07;;;;;;;1.45;1.35;;;;;;;3.81;100.00;97227.50;5050402;28;20083;-84
2021/04/18 00:24:32;;;;;;;2.53;1.75;;;;;;;3.75;100.00;97230.41;5033896;28;20025;-83
2021/04/18 00:26:58;;;;;;;1.67;1.58;;;;;;;3.73;100.00;97218.19;5033745;28;20484;-84
2021/04/18 00:29:24;;;;;;;1.55;1.40;;;;;;;3.87;100.00;97244.09;5033771;28;20044;-84
2021/04/18 00:31:49;;;;;;;2.10;1.48;;;;;;;3.83;100.00;97230.13;5033968;28;20416;-85
2021/04/18 00:34:15;;;;;;;2.45;1.95;;;;;;;3.82;100.00;97223.09;5033561;28;20071;-85
2021/04/18 00:36:40;;;;;;;4.03;2.28;;;;;;;3.89;100.00;97229.00;5050591;28;20468;-84
2021/04/18 00:39:06;;;;;;;2.13;1.73;;;;;;;3.90;100.00;97225.44;5033503;28;20527;-84
2021/04/18 00:41:33;;;;;;;1.13;1.13;;;;;;;3.93;100.00;97220.03;5033532;28;20074;-85
2021/04/18 00:43:59;;;;;;;1.35;1.27;;;;;;;3.87;100.00;97205.28;5034343;28;20025;-85
2021/04/18 00:46:24;;;;;;;4.43;1.75;;;;;;;3.75;100.00;97216.34;5033928;28;20479;-86
2021/04/18 00:48:50;;;;;;;1.17;1.00;;;;;;;3.72;100.00;97212.03;5034262;28;20040;-85
2021/04/18 00:51:16;;;;;;;1.63;1.45;;;;;;;3.77;100.00;97214.50;5034213;28;20446;-85
2021/04/18 00:53:42;;;;;;;2.42;1.38;;;;;;;3.84;100.00;97211.53;5033803;28;20496;-86
2021/04/18 00:56:09;;;;;;;4.97;1.67;;;;;;;3.82;100.00;97212.50;5033698;28;20032;-86
2021/04/18 00:58:35;;;;;;;2.45;2.28;;;;;;;3.85;100.00;97212.38;5033260;28;20032;-85
2021/04/18 01:01:01;;;;;;;0.90;0.88;;;;;;;3.86;100.00;97208.84;5033712;28;20020;-85
2021/04/18 01:03:27;;;;;;;4.07;2.45;;;;;;;3.89;100.00;97207.84;5033391;28;20480;-86
2021/04/18 01:05:52;;;;;;;3.08;2.28;;;;;;;3.91;100.00;97216.59;5033520;28;20073;-85
2021/04/18 01:08:18;;;;;;;1.10;1.10;;;;;;;3.87;100.00;97210.56;5033275;28;20028;-85
2021/04/18 01:10:43;;;;;;;4.82;3.40;;;;;;;3.86;100.00;97205.31;5033270;28;20035;-86
2021/04/18 01:13:09;;;;;;;4.40;3.00;;;;;;;3.82;100.00;97217.81;5033519;28;20029;-86
2021/04/18 01:15:35;;;;;;;5.47;2.75;;;;;;;3.88;100.00;97208.78;5034921;28;20025;-85
2021/04/18 01:18:00;;;;;;;2.03;1.92;;;;;;;3.88;100.00;97203.50;5037432;28;20083;-85
2021/04/18 01:20:26;;;;;;;4.43;3.28;;;;;;;3.87;100.00;97193.81;5037127;28;20407;-86
2021/04/18 01:22:52;;;;;;;1.33;1.23;;;;;;;3.90;100.00;97194.56;5036901;28;20033;-86
2021/04/18 01:25:19;;;;;;;3.53;2.38;;;;;;;3.82;100.00;97189.56;5037257;28;20017;-85
2021/04/18 01:27:47;;;;;;;2.45;2.28;;;;;;;3.82;100.00;97175.47;5021025;28;20033;-86
2021/04/18 01:30:17;;;;;;;3.08;2.78;;;;;;;3.98;100.00;97203.03;5037337;28;20029;-85
2021/04/18 01:32:45;;;;;;;2.33;2.03;;;;;;;3.86;100.00;97195.59;5054027;28;20480;-84
2021/04/18 01:35:11;;;;;;;3.13;2.40;;;;;;;3.82;100.00;97180.78;5041026;28;20513;-86
2021/04/18 01:37:37;;;;;;;2.13;1.92;;;;;;;3.94;100.00;97200.59;5044155;28;20033;-85
2021/04/18 01:40:05;;;;;;;3.00;2.10;;;;;;;3.93;100.00;97194.44;5066666;28;20035;-85
2021/04/18 01:42:31;;;;;;;2.30;2.20;;;;;;;3.91;100.00;97188.31;5054350;28;20451;-85
2021/04/18 01:44:57;;;;;;;1.90;1.70;;;;;;;3.93;100.00;97189.16;5057082;28;20040;-85
2021/04/18 01:47:22;;;;;;;6.97;2.75;;;;;;;4.01;100.00;97180.88;5055715;28;20119;-86
2021/04/18 01:49:48;;;;;;;5.97;3.70;;;;;;;3.99;100.00;97188.88;5060000;28;20510;-86
2021/04/18 01:52:14;;;;;;;2.78;2.50;;;;;;;3.92;100.00;97195.34;5059696;28;20024;-85
2021/04/18 01:54:39;;;;;;;2.78;2.42;;;;;;;4.02;100.00;97194.06;5059716;28;20024;-85
2021/04/18 01:57:05;;;;;;;3.08;2.88;;;;;;;3.97;100.00;97179.31;5063952;28;20115;-85
2021/04/18 01:59:31;;;;;;;2.90;2.65;;;;;;;4.08;100.00;97169.13;5075551;28;20031;-85
2021/04/18 02:02:10;;;;;;;2.35;2.15;;;;;;;4.18;100.00;97167.81;5043895;28;20025;-85
2021/04/18 02:04:36;;;;;;;9.50;2.60;;;;;;;4.16;100.00;97164.34;5051927;28;20028;-85
2021/04/18 02:07:03;;;;;;;5.88;3.25;;;;;;;4.19;100.00;97157.13;5039781;28;20021;-85
2021/04/18 02:09:32;;;;;;;2.33;1.73;;;;;;;4.17;100.00;97145.78;5047960;28;20025;-85
2021/04/18 02:11:59;;;;;;;1.70;1.35;;;;;;;4.03;100.00;97128.78;5048267;28;20097;-86
2021/04/18 02:14:27;;;;;;;2.33;1.60;;;;;;;4.08;100.00;97134.72;5055913;28;20017;-85
2021/04/18 02:16:54;;;;;;;2.50;1.90;;;;;;;4.12;100.00;97152.19;5043392;28;20090;-85
2021/04/18 02:19:20;;;;;;;3.50;2.53;;;;;;;4.12;100.00;97154.84;5047671;28;20119;-85
2021/04/18 02:21:49;;;;;;;5.68;1.95;;;;;;;4.14;100.00;97163.56;5075007;28;20036;-85
2021/04/18 02:24:14;;;;;;;3.65;1.60;;;;;;;3.98;100.00;97176.56;5055541;28;20040;-85
2021/04/18 02:26:40;;;;;;;3.40;2.28;;;;;;;3.93;100.00;97161.81;5054439;28;20036;-85
2021/04/18 02:29:06;;;;;;;2.70;1.52;;;;;;;3.89;100.00;97160.22;5054993;28;20035;-85
2021/04/18 02:31:31;;;;;;;2.80;2.00;;;;;;;4.00;100.00;97158.00;5054961;28;20031;-86
2021/04/18 02:33:57;;;;;;;3.03;2.30;;;;;;;3.99;100.00;97158.91;5055735;28;20094;-86
2021/04/18 02:36:23;;;;;;;2.20;2.05;;;;;;;4.06;100.00;97155.94;5047074;28;20543;-86
2021/04/18 02:38:48;;;;;;;4.03;2.10;;;;;;;4.04;100.00;97162.22;5055356;28;20024;-85
2021/04/18 02:41:14;;;;;;;2.30;2.03;;;;;;;3.99;100.00;97166.84;5043491;28;20040;-85
2021/04/18 02:43:40;;;;;;;1.63;1.52;;;;;;;4.02;100.00;97174.66;5051144;28;20028;-85
2021/04/18 02:46:05;;;;;;;1.48;1.38;;;;;;;3.99;100.00;97170.38;5055393;28;20024;-83
2021/04/18 02:48:49;;;;;;;3.80;2.30;;;;;;;3.99;100.00;97180.94;5051387;28;20028;-83
2021/04/18 02:51:14;;;;;;;1.13;1.05;;;;;;;3.84;100.00;97150.69;5060407;28;20464;-85
2021/04/18 02:53:40;;;;;;;1.60;1.50;;;;;;;4.03;100.00;97179.03;5041726;28;20028;-85
2021/04/18 02:56:06;;;;;;;1.73;1.63;;;;;;;4.12;100.00;97189.25;5059687;28;20032;-85
2021/04/18 02:58:31;;;;;;;2.90;1.35;;;;;;;4.07;100.00;97176.19;5038957;28;20043;-85
2021/04/18 03:00:57;;;;;;;12.82;3.63;;;;;;;4.16;100.00;97172.28;5053604;28;20039;-85
2021/04/18 03:03:23;;;;;;;6.90;3.35;;;;;;;4.11;100.00;97166.34;5058459;28;20028;-85
2021/04/18 03:05:48;;;;;;;7.20;3.40;;;;;;;4.08;100.00;97171.75;5058401;28;20082;-85
2021/04/18 03:08:14;;;;;;;7.07;3.67;;;;;;;4.12;100.00;97168.91;5041582;28;20093;-86
2021/04/18 03:10:42;;;;;;;2.22;1.33;;;;;;;4.02;100.00;97162.31;5038864;28;20037;-85
2021/04/18 03:13:08;;;;;;;2.58;2.38;;;;;;;4.06;100.00;97157.75;5043233;28;20017;-85
2021/04/18 03:15:33;;;;;;;2.35;2.15;;;;;;;4.13;100.00;97169.78;5043004;28;20047;-85
2021/04/18 03:18:00;;;;;;;3.70;3.00;;;;;;;4.06;100.00;97155.09;5050652;28;20020;-86
2021/04/18 03:20:25;;;;;;;2.05;1.90;;;;;;;4.17;100.00;97169.59;5042750;28;20017;-86
2021/04/18 03:22:51;;;;;;;2.85;2.30;;;;;;;4.19;100.00;97169.50;5042283;28;20550;-85
2021/04/18 03:25:16;;;;;;;6.97;3.08;;;;;;;4.17;100.00;97158.13;5040357;28;20501;-86
2021/04/18 03:27:42;;;;;;;4.13;3.47;;;;;;;4.18;100.00;97157.22;5063636;28;20051;-85
2021/04/18 03:30:08;;;;;;;2.30;2.03;;;;;;;4.20;100.00;97150.06;5045316;28;20052;-85
2021/04/18 03:32:34;;;;;;;2.92;2.63;;;;;;;4.12;100.00;97153.03;5054042;28;20757;-85
2021/04/18 03:35:00;;;;;;;6.10;4.00;;;;;;;4.13;100.00;97164.47;5052050;28;20052;-85
2021/04/18 03:37:26;;;;;;;3.03;2.40;;;;;;;4.13;100.00;97162.69;5042864;28;20028;-85
2021/04/18 03:39:52;;;;;;;5.47;3.40;;;;;;;4.14;100.00;97155.63;5040298;28;20028;-83
2021/04/18 03:42:18;;;;;;;1.75;1.65;;;;;;;4.19;100.00;97174.78;5054703;28;20039;-84
2021/04/18 03:44:44;;;;;;;1.65;1.55;;;;;;;4.22;100.00;97167.59;5058426;28;20036;-84
2021/04/18 03:47:09;;;;;;;2.10;1.42;;;;;;;4.23;100.00;97166.69;5044684;28;20040;-84
2021/04/18 03:49:35;;;;;;;1.52;1.40;;;;;;;4.24;100.00;97163.13;5053694;28;20039;-84
2021/04/18 03:52:00;;;;;;;3.83;2.63;;;;;;;4.31;100.00;97172.47;5053249;28;20035;-84
2021/04/18 03:54:26;;;;;;;2.90;2.70;;;;;;;4.34;100.00;97158.25;5057502;28;20026;-85
2021/04/18 03:56:52;;;;;;;6.53;4.38;;;;;;;4.31;100.00;97161.91;5045144;28;20024;-84
2021/04/18 03:59:18;;;;;;;4.93;3.53;;;;;;;4.32;100.00;97176.00;5065828;28;20028;-85
2021/04/18 04:01:43;;;;;;;4.18;3.50;;;;;;;4.35;100.00;97178.50;5049167;28;20475;-85
2021/04/18 04:04:09;;;;;;;6.50;2.80;;;;;;;4.38;100.00;97178.38;5042967;28;20032;-85
2021/04/18 04:06:35;;;;;;;4.22;2.85;;;;;;;4.34;100.00;97176.78;5037798;28;20035;-85
2021/04/18 04:09:01;;;;;;;3.63;2.63;;;;;;;4.33;100.00;97183.03;5045450;28;20032;-86
2021/04/18 04:11:27;;;;;;;1.98;1.88;;;;;;;4.35;100.00;97194.41;5037814;28;20032;-84
2021/04/18 04:13:52;;;;;;;5.57;3.70;;;;;;;4.40;100.00;97205.63;5044992;28;20058;-84
2021/04/18 04:16:18;;;;;;;2.22;1.77;;;;;;;4.20;100.00;97208.28;5037140;28;20035;-84
2021/04/18 04:18:44;;;;;;;4.38;2.67;;;;;;;4.35;100.00;97231.47;5043863;28;20491;-84
2021/04/18 04:21:09;;;;;;;3.50;1.52;;;;;;;4.32;100.00;97224.50;5051099;28;20027;-85
2021/04/18 04:23:35;;;;;;;2.83;2.45;;;;;;;4.37;100.00;97216.34;5050814;28;20135;-85
2021/04/18 04:26:02;;;;;;;3.35;2.67;;;;;;;4.34;100.00;97208.56;5044422;28;20566;-85
2021/04/18 04:28:28;;;;;;;3.20;2.90;;;;;;;4.38;100.00;97210.16;5073909;28;20032;-84
2021/04/18 04:30:54;;;;;;;5.45;2.35;;;;;;;4.29;100.00;97223.78;5049755;28;20036;-84
2021/04/18 04:33:19;;;;;;;3.60;3.20;;;;;;;4.31;100.00;97213.97;5045241;28;20048;-84
2021/04/18 04:35:45;;;;;;;1.63;1.52;;;;;;;4.34;100.00;97213.84;5039538;28;20021;-85
2021/04/18 04:38:10;;;;;;;2.42;2.22;;;;;;;4.33;100.00;97215.66;5049072;28;20034;-85
2021/04/18 04:40:36;;;;;;;3.03;2.22;;;;;;;4.32;100.00;97210.41;5052068;28;20055;-85
2021/04/18 04:43:02;;;;;;;3.20;2.65;;;;;;;4.33;100.00;97206.84;5037156;28;20036;-84
2021/04/18 04:45:28;;;;;;;8.10;3.80;;;;;;;4.28;100.00;97214.09;5044670;28;20032;-85
2021/04/18 04:47:53;;;;;;;8.70;3.90;;;;;;;4.27;100.00;97215.06;5054140;28;20105;-85
2021/04/18 04:50:20;;;;;;;4.32;2.17;;;;;;;4.12;100.00;97221.81;5056702;28;20024;-85
2021/04/18 04:52:46;;;;;;;3.80;2.83;;;;;;;4.05;100.00;97203.63;5055268;28;20059;-84
2021/04/18 04:55:12;;;;;;;5.40;3.83;;;;;;;4.12;100.00;97205.13;5047222;28;20059;-88
2021/04/18 04:57:37;;;;;;;4.38;3.20;;;;;;;4.19;100.00;97206.56;5070471;28;20035;-84
2021/04/18 05:00:04;;;;;;;1.58;1.40;;;;;;;4.28;100.00;97208.81;5073953;28;20024;-87
2021/04/18 05:02:30;;;;;;;4.78;3.25;;;;;;;4.27;100.00;97205.34;5036856;28;20441;-85
2021/04/18 05:04:55;;;;;;;3.53;3.22;;;;;;;4.25;100.00;97201.00;5060957;28;20032;-85
2021/04/18 05:07:21;;;;;;;5.65;2.88;;;;;;;4.34;100.00;97206.78;5057133;28;20032;-85
2021/04/18 05:09:46;;;;;;;2.20;2.03;;;;;;;4.36;100.00;97198.78;5060998;28;20032;-85
2021/04/18 05:12:12;;;;;;;13.88;2.65;;;;;;;4.27;100.00;97200.03;5047385;28;20043;-85
2021/04/18 05:14:38;;;;;;;4.07;3.30;;;;;;;4.27;100.00;97197.38;5048802;28;20109;-85
2021/04/18 05:17:03;;;;;;;4.18;2.42;;;;;;;4.25;100.00;97211.59;5049262;28;20036;-85
2021/04/18 05:19:32;;;;;;;3.35;3.03;;;;;;;4.25;100.00;97201.00;5053719;28;20111;-85
2021/04/18 05:21:58;;;;;;;2.47;1.83;;;;;;;4.34;100.00;97219.13;5041138;28;20035;-84
2021/04/18 05:24:24;;;;;;;1.95;1.38;;;;;;;4.35;100.00;97208.50;5044411;28;20024;-85
2021/04/18 05:27:08;;;;;;;3.15;2.03;;;;;;;4.31;100.00;97206.91;5042307;28;20040;-86
2021/04/18 05:29:33;;;;;;;4.55;2.22;;;;;;;4.36;100.00;97204.06;5073304;28;20032;-86
2021/04/18 05:31:59;;;;;;;2.03;1.90;;;;;;;4.41;100.00;97210.03;5052752;28;20093;-86
2021/04/18 05:34:24;;;;;;;2.53;2.33;;;;;;;4.48;100.00;97210.63;5070676;28;20048;-86
2021/04/18 05:36:50;;;;;;;5.25;2.83;;;;;;;4.56;100.00;97217.28;5054950;28;20479;-87
2021/04/18 05:39:15;;;;;;;2.15;1.92;;;;;;;4.56;100.00;97216.44;5058381;28;20521;-87
2021/04/18 05:41:41;;;;;;;3.05;2.72;;;;;;;4.51;100.00;97224.59;5040533;28;20388;-86
2021/04/18 05:44:08;;;;;;;2.08;1.88;;;;;;;4.50;100.00;97224.63;5073746;28;20028;-86
2021/04/18 05:46:34;;;;;;;2.88;2.45;;;;;;;4.46;100.00;97212.47;5060044;28;20036;-86
2021/04/18 05:48:59;;;;;;;2.30;1.58;;;;;;;4.58;100.00;97211.94;5046225;28;20032;-86
2021/04/18 05:51:25;;;;;;;1.77;1.67;;;;;;;4.68;100.00;97215.88;5045847;28;20020;-86
2021/04/18 05:53:51;;;;;;;6.07;3.25;;;;;;;4.50;100.00;97206.97;5056425;28;20051;-86
2021/04/18 05:56:16;;;;;;;2.55;1.85;;;;;;;4.56;100.00;97205.84;5053240;28;20040;-85
2021/04/18 05:58:42;;;;;;;5.57;2.83;;;;;;;4.71;100.00;97221.91;5047718;28;20093;-86
2021/04/18 06:01:07;;;;;;;5.32;2.83;;;;;;;4.83;100.00;97221.38;5047165;28;20035;-86
2021/04/18 06:03:33;;;;;;;4.10;3.03;;;;;;;4.74;100.00;97205.88;5055380;28;20024;-85
2021/04/18 06:05:58;;;;;;;2.78;2.58;;;;;;;4.90;100.00;97216.66;5055513;28;20051;-85
2021/04/18 06:08:24;;;;;;;6.13;2.35;;;;;;;4.88;100.00;97214.09;5043330;28;20039;-87
2021/04/18 06:10:50;;;;;;;2.38;2.17;;;;;;;4.88;100.00;97192.03;5032384;28;20496;-86
2021/04/18 06:13:16;;;;;;;5.15;2.75;;;;;;;5.08;100.00;97196.41;5070245;28;20461;-87
2021/04/18 06:15:41;;;;;;;5.35;4.28;;;;;;;5.12;100.00;97203.31;5049218;28;20514;-86
2021/04/18 06:18:07;;;;;;;2.83;2.53;;;;;;;5.31;100.00;97198.88;5042918;28;20487;-85
2021/04/18 06:20:33;;;;;;;5.97;2.95;;;;;;;5.50;100.00;97197.09;5049897;28;20054;-85
2021/04/18 06:22:58;;;;;;;4.47;3.00;;;;;;;5.74;100.00;97203.88;5047381;28;20032;-85
2021/04/18 06:25:24;;;;;;;10.52;4.53;;;;;;;5.92;100.00;97215.41;5050759;28;20062;-85
2021/04/18 06:27:50;;;;;;;7.55;3.25;;;;;;;6.01;100.00;97220.25;5065721;28;20030;-85
2021/04/18 06:30:16;;;;;;;4.25;3.72;;;;;;;6.14;100.00;97220.53;5062452;28;20495;-85
2021/04/18 06:32:42;;;;;;;6.45;4.22;;;;;;;6.02;100.00;97219.34;5053510;28;20028;-85
2021/04/18 06:35:08;;;;;;;5.30;4.07;;;;;;;6.12;100.00;97214.44;5064572;28;20024;-86
2021/04/18 06:37:34;;;;;;;7.20;3.75;;;;;;;6.21;98.35;97228.13;5053111;28;20406;-83
2021/04/18 06:40:00;;;;;;;5.05;3.55;;;;;;;6.29;99.28;97231.25;5048617;28;20033;-84
2021/04/18 06:42:26;;;;;;;6.40;2.58;;;;;;;6.20;99.30;97230.84;5055407;28;20020;-85
2021/04/18 06:44:52;;;;;;;6.72;2.88;;;;;;;6.06;98.30;97218.22;5041542;28;20052;-86
2021/04/18 06:47:18;;;;;;;2.47;2.22;;;;;;;6.16;98.24;97215.97;5041067;28;20056;-85
2021/04/18 06:49:43;;;;;;;4.30;2.25;;;;;;;6.18;96.66;97219.44;5062446;28;20081;-90
2021/04/18 06:52:11;;;;;;;8.93;3.13;;;;;;;6.28;96.83;97233.94;5050460;28;20040;-84
2021/04/18 06:54:37;;;;;;;3.33;2.95;;;;;;;6.33;97.90;97237.25;5055646;28;20070;-85
2021/04/18 06:57:03;;;;;;;2.67;1.27;;;;;;;6.27;98.48;97214.53;5056064;28;20035;-85
2021/04/18 06:59:29;;;;;;;3.80;3.20;;;;;;;6.33;96.89;97216.88;5058343;28;20154;-88
2021/04/18 07:01:55;;;;;;;6.57;2.38;;;;;;;6.37;95.43;97230.84;5060403;28;20015;-88
2021/04/18 07:04:21;;;;;;;3.08;2.58;;;;;;;6.65;95.48;97241.78;5064717;28;20020;-89
2021/04/18 07:06:53;;;;;;;1.90;1.80;;;;;;;6.84;96.03;97223.94;5053946;28;20447;-84
2021/04/18 07:09:20;;;;;;;1.40;1.30;;;;;;;7.19;93.04;97240.72;5048535;28;20043;-86
2021/04/18 07:11:52;;;;;;;3.83;2.58;;;;;;;7.20;92.22;97242.41;5052476;28;20050;-85
2021/04/18 07:14:33;;;;;;;3.40;2.67;;;;;;;7.38;92.68;97240.59;5060697;28;20483;-85
2021/04/18 07:17:12;;;;;;;2.53;2.30;;;;;;;7.62;92.71;97233.91;5057241;28;20024;-86
2021/04/18 07:19:43;;;;;;;3.95;3.53;;;;;;;7.83;90.50;97247.81;5069651;28;20384;-85
2021/04/18 07:22:15;;;;;;;4.78;3.95;;;;;;;8.04;89.69;97249.28;5047738;28;20105;-85
2021/04/18 07:24:48;;;;;;;6.00;3.13;;;;;;;8.02;89.06;97249.38;5051914;28;20031;-85
2021/04/18 07:27:14;;;;;;;6.40;2.25;;;;;;;8.17;88.85;97253.84;5086133;28;20053;-85
2021/04/18 07:29:39;;;;;;;2.50;2.13;;;;;;;7.96;87.28;97243.53;5040276;28;20036;-86
2021/04/18 07:32:22;;;;;;;7.03;3.55;;;;;;;8.12;89.53;97237.25;5049174;28;20024;-86
2021/04/18 07:34:48;;;;;;;3.22;2.40;;;;;;;8.18;88.91;97228.88;5047129;28;20097;-84
2021/04/18 07:37:18;;;;;;;5.10;2.85;;;;;;;8.37;87.40;97212.72;5065805;28;20437;-86
2021/04/18 07:39:54;;;;;;;5.25;3.15;;;;;;;8.81;85.86;97249.22;5049998;28;20023;-84
2021/04/18 07:42:29;;;;;;;14.32;7.18;;;;;;;8.87;85.16;97244.41;5053136;28;20024;-91
2021/04/18 07:44:56;;;;;;;10.88;6.78;;;;;;;8.36;86.35;97247.47;5061630;28;20101;-85
2021/04/18 07:47:22;;;;;;;22.48;8.07;;;;;;;7.92;88.54;97240.19;5069116;28;20043;-82
2021/04/18 07:49:49;;;;;;;9.25;5.22;;;;;;;7.93;89.39;97239.25;5064494;28;20028;-90
2021/04/18 07:52:18;;;;;;;13.57;7.18;;;;;;;7.84;88.67;97237.09;5071354;28;20507;-86
2021/04/18 07:54:44;;;;;;;7.57;4.97;;;;;;;8.15;88.92;97250.38;5062224;28;20066;-80
2021/04/18 07:57:10;;;;;;;14.00;6.53;;;;;;;8.09;90.83;97245.41;5076273;28;20510;-87
2021/04/18 07:59:37;;;;;;;60.35;19.27;;;;;;;8.09;91.95;97248.06;5046382;28;20034;-87
2021/04/18 08:02:03;;;;;;;10.02;7.43;;;;;;;8.03;89.92;97244.88;5059294;28;20055;-86
2021/04/18 08:04:30;;;;;;;16.65;8.38;;;;;;;7.88;91.20;97235.97;5061221;28;20149;-87
2021/04/18 08:06:55;;;;;;;11.88;6.97;;;;;;;8.06;90.45;97236.72;5039507;28;20025;-86
2021/04/18 08:09:24;;;;;;;11.23;6.32;;;;;;;8.01;90.58;97242.31;5039826;28;20032;-85
2021/04/18 08:12:05;;;;;;;12.10;6.18;;;;;;;8.09;92.29;97266.72;5056844;28;20473;-86
2021/04/18 08:14:35;;;;;;;16.20;7.50;;;;;;;8.07;91.28;97241.13;5063652;28;20032;-87
2021/04/18 08:17:10;;;;;;;11.00;4.63;;;;;;;8.16;87.67;97249.44;5067164;28;20093;-87
2021/04/18 08:19:36;;;;;;;9.07;4.80;;;;;;;8.30;87.48;97248.69;5052068;28;20028;-89
2021/04/18 08:22:02;;;;;;;10.90;6.22;;;;;;;8.39;89.97;97241.97;5062703;28;20028;-86
2021/04/18 08:24:34;;;;;;;6.28;4.38;;;;;;;8.48;90.20;97252.09;5058440;28;20028;-86
2021/04/18 08:27:02;;;;;;;10.40;4.57;;;;;;;8.61;89.63;97247.78;5074798;28;20040;-88
2021/04/18 08:29:28;;;;;;;7.15;5.57;;;;;;;8.79;89.07;97257.34;5073502;28;20123;-86
2021/04/18 08:31:56;;;;;;;9.90;4.80;;;;;;;8.86;87.35;97263.19;5048803;28;20071;-87
2021/04/18 08:34:24;;;;;;;12.48;3.83;;;;;;;8.97;87.44;97261.56;5051926;28;20052;-87
2021/04/18 08:36:52;;;;;;;5.60;3.97;;;;;;;8.91;85.72;97263.75;5073684;28;20032;-86
2021/04/18 08:39:21;;;;;;;43.83;21.67;;;;;;;8.98;86.54;97265.94;5045876;28;20496;-86
2021/04/18 08:41:53;;;;;;;22.77;10.88;;;;;;;8.89;85.66;97257.66;5048708;28;20083;-86
2021/04/18 08:45:00;;;;;;;11.30;5.95;;;;;;;9.12;87.32;97270.44;5045741;28;20024;-86
2021/04/18 08:47:28;;;;;;;9.68;5.60;;;;;;;9.25;83.46;97250.09;5069499;28;20028;-83
2021/04/18 08:49:57;;;;;;;4.47;3.45;;;;;;;9.71;81.15;97269.44;5057323;28;20036;-85
2021/04/18 08:52:28;;;;;;;5.35;3.45;;;;;;;9.86;82.26;97267.59;5046347;28;20484;-86
2021/04/18 08:55:11;;;;;;;13.02;7.93;;;;;;;10.51;79.16;97268.72;5051896;28;20059;-87
2021/04/18 08:57:40;;;;;;;10.75;3.78;;;;;;;10.89;76.01;97258.97;5041130;28;20094;-85
2021/04/18 09:00:11;;;;;;;5.97;4.65;;;;;;;11.39;75.25;97275.09;5062906;28;20539;-82
2021/04/18 09:02:37;;;;;;;8.65;4.47;;;;;;;11.71;71.17;97262.16;5037852;28;20115;-80
2021/04/18 09:05:06;;;;;;;12.18;6.22;;;;;;;11.79;71.47;97269.63;5044761;28;20115;-80
2021/04/18 09:07:35;;;;;;;12.48;5.03;;;;;;;11.61;69.89;97268.22;5061660;28;20031;-79
2021/04/18 09:10:04;;;;;;;7.82;4.43;;;;;;;11.49;70.63;97271.78;5048407;28;20036;-80
2021/04/18 09:12:30;;;;;;;7.43;3.17;;;;;;;11.20;71.84;97271.09;5060464;28;20027;-80
2021/04/18 09:14:56;;;;;;;12.82;4.70;;;;;;;10.98;73.24;97293.16;5083680;28;20031;-79
2021/04/18 09:17:27;;;;;;;8.48;4.60;;;;;;;10.80;72.94;97284.53;5041914;28;20028;-79
2021/04/18 09:19:57;;;;;;;8.18;3.95;;;;;;;10.65;73.41;97279.34;5058257;28;20051;-79
2021/04/18 09:22:30;;;;;;;9.40;4.15;;;;;;;10.41;77.81;97283.63;5059427;28;20082;-78
2021/04/18 09:24:56;;;;;;;8.80;4.57;;;;;;;10.52;77.26;97279.28;5045817;28;20028;-79
2021/04/18 09:27:33;;;;;;;6.70;3.92;;;;;;;10.63;76.63;97279.44;5078148;28;20028;-84
2021/04/18 09:30:02;;;;;;;2.28;2.08;;;;;;;10.47;76.56;97283.22;5046764;28;20029;-83
2021/04/18 09:32:30;;;;;;;5.65;3.15;;;;;;;10.26;77.94;97277.47;5053958;28;20488;-83
2021/04/18 09:34:56;;;;;;;6.95;4.07;;;;;;;10.49;77.14;97273.31;5055903;28;20043;-84
2021/04/18 09:37:29;;;;;;;4.10;3.58;;;;;;;10.83;77.62;97278.09;5039909;28;20131;-84
2021/04/18 09:39:59;;;;;;;12.32;6.55;;;;;;;10.81;77.99;97274.69;5047803;28;20066;-84
2021/04/18 09:42:26;;;;;;;13.23;6.32;;;;;;;10.45;75.85;97259.28;5058972;28;20434;-84
2021/04/18 09:44:55;;;;;;;5.85;3.53;;;;;;;10.19;77.58;97263.66;5043090;28;20040;-84
2021/04/18 09:47:28;;;;;;;10.98;5.57;;;;;;;10.52;76.13;97283.81;5038260;28;20034;-83
2021/04/18 09:49:57;;;;;;;5.55;4.18;;;;;;;10.63;77.53;97284.81;5068941;28;20551;-83
2021/04/18 09:52:39;;;;;;;9.20;3.97;;;;;;;10.71;78.15;97276.25;5046206;28;20114;-83
2021/04/18 09:55:14;;;;;;;3.80;2.67;;;;;;;10.57;78.60;97254.94;5052244;28;20036;-84
2021/04/18 09:57:53;;;;;;;7.03;4.32;;;;;;;10.63;77.50;97278.59;5065039;28;20403;-83
2021/04/18 10:00:31;;;;;;;5.68;3.70;;;;;;;10.55;78.48;97280.94;5037073;28;20541;-83
2021/04/18 10:03:13;;;;;;;7.75;3.25;;;;;;;10.52;78.17;97270.44;5061142;28;20028;-84
2021/04/18 10:05:44;;;;;;;5.35;3.42;;;;;;;10.83;77.74;97284.31;5049117;28;20024;-83
2021/04/18 10:08:18;;;;;;;4.07;1.73;;;;;;;10.68;75.09;97280.00;5062042;28;20517;-85
2021/04/18 10:10:45;;;;;;;3.40;2.13;;;;;;;10.77;76.64;97259.78;5070383;28;20032;-84
2021/04/18 10:13:13;;;;;;;2.55;2.35;;;;;;;11.00;75.40;97260.91;5050843;28;20028;-85
2021/04/18 10:15:55;;;;;;;14.57;4.47;;;;;;;11.35;74.44;97275.44;5041574;28;20047;-85
2021/04/18 10:18:21;;;;;;;4.10;3.30;;;;;;;11.23;74.93;97276.25;5057107;28;20093;-84
2021/04/18 10:20:48;;;;;;;5.15;2.83;;;;;;;10.51;74.38;97274.06;5045525;28;20028;-85
2021/04/18 10:23:14;;;;;;;4.82;2.83;;;;;;;10.51;76.43;97274.06;5036899;28;20029;-85
2021/04/18 10:25:41;;;;;;;1.15;1.05;;;;;;;10.39;78.16;97267.72;5045241;28;20081;-83
2021/04/18 10:28:10;;;;;;;1.85;1.17;;;;;;;10.35;76.88;97282.22;5058282;28;20590;-84
2021/04/18 10:30:38;;;;;;;10.23;4.40;;;;;;;10.36;76.60;97288.44;5056395;28;20026;-84
2021/04/18 10:33:04;;;;;;;2.78;1.98;;;;;;;10.36;78.52;97283.94;5042021;28;20048;-83
2021/04/18 10:35:29;;;;;;;3.40;0.90;;;;;;;10.32;79.04;97283.28;5042131;28;20024;-84
2021/04/18 10:37:58;;;;;;;2.10;1.13;;;;;;;10.27;78.53;97295.25;5053536;28;20058;-83
2021/04/18 10:40:27;;;;;;;3.35;2.30;;;;;;;10.31;77.67;97284.22;5056372;28;20035;-83
2021/04/18 10:42:52;;;;;;;4.05;2.10;;;;;;;10.31;78.29;97281.56;5056293;28;20032;-85
2021/04/18 10:45:18;;;;;;;2.42;1.90;;;;;;;10.53;76.11;97274.81;5041443;28;20028;-85
2021/04/18 10:47:44;;;;;;;20.95;5.70;;;;;;;10.77;77.06;97279.38;5041120;28;20074;-85
2021/04/18 10:50:10;;;;;;;8.98;4.65;;;;;;;10.81;76.63;97286.25;5038938;28;20055;-84
2021/04/18 10:52:36;;;;;;;7.47;2.08;;;;;;;11.24;73.14;97267.25;5041583;28;20097;-84
2021/04/18 10:55:02;;;;;;;3.55;2.60;;;;;;;11.67;71.91;97270.47;5046474;28;20021;-84
2021/04/18 10:57:29;;;;;;;4.65;2.92;;;;;;;12.52;70.52;97283.09;5037569;28;20479;-84
2021/04/18 10:59:55;;;;;;;2.75;1.45;;;;;;;12.86;68.25;97290.31;5046524;28;20097;-83
2021/04/18 11:02:21;;;;;;;1.80;1.20;;;;;;;12.88;68.54;97281.19;5052707;28;20491;-84
2021/04/18 11:04:46;;;;;;;4.40;1.95;;;;;;;13.08;69.74;97298.50;5056430;28;20035;-83
2021/04/18 11:07:12;;;;;;;3.55;2.70;;;;;;;13.61;66.53;97293.50;5054591;28;20035;-84
2021/04/18 11:09:38;;;;;;;4.38;1.52;;;;;;;13.37;65.70;97296.28;5062997;28;20020;-83
2021/04/18 11:12:16;;;;;;;9.57;3.60;;;;;;;13.04;65.50;97294.31;5058056;28;20031;-83
2021/04/18 11:14:42;;;;;;;3.38;2.75;;;;;;;12.40;67.65;97276.78;5049013;28;20111;-84
2021/04/18 11:17:07;;;;;;;9.18;5.88;;;;;;;12.74;68.10;97284.03;5041679;28;20111;-83
2021/04/18 11:19:33;;;;;;;2.58;1.73;;;;;;;12.86;68.04;97298.38;5050593;28;20032;-90
2021/04/18 11:21:58;;;;;;;3.47;2.33;;;;;;;13.27;68.35;97296.13;5040950;28;20491;-85
2021/04/18 11:24:25;;;;;;;3.58;2.13;;;;;;;13.56;67.25;97300.13;5053214;28;20031;-84
2021/04/18 11:26:51;;;;;;;2.78;1.95;;;;;;;13.77;65.09;97288.66;5045666;28;20058;-84
2021/04/18 11:29:17;;;;;;;2.35;1.58;;;;;;;13.97;64.70;97298.66;5037520;28;20747;-85
2021/04/18 11:31:44;;;;;;;1.20;1.10;;;;;;;14.02;63.28;97286.59;5052089;28;20077;-84
2021/04/18 11:34:10;;;;;;;3.15;1.27;;;;;;;13.83;63.85;97290.84;5036462;28;20051;-88